Time;durP1;ratioP1;P1;durP2;ratioP2;P2;SDS_P1;SDS_P2;PMS_P1;PMS_P2;Temp;Humidity;BMP_temperature;BMP_pressure;BME280_temperature;BME280_humidity;BME280_pressure;Samples;Min_cycle;Max_cycle;Signal;HPM_P1;HPM_P2
2022/08/20 00:01:58;;;;;;;7.05;3.83;;;17.10;69.60;;;;;;4130512;28;20038;-82
2022/08/20 00:03:59;;;;;;;6.60;4.53;;;17.10;69.80;;;;;;4131822;28;20026;-81
2022/08/20 00:06:09;;;;;;;9.35;4.80;;;17.00;69.90;;;;;;4111225;28;20637;-82
2022/08/20 00:08:11;;;;;;;8.77;4.70;;;17.10;70.30;;;;;;4112769;28;20023;-81
2022/08/20 00:10:13;;;;;;;8.18;4.80;;;17.10;70.40;;;;;;4122164;28;20058;-82
2022/08/20 00:12:16;;;;;;;9.45;5.47;;;17.00;70.40;;;;;;4129604;28;20050;-82
2022/08/20 00:14:16;;;;;;;11.73;5.97;;;17.10;70.70;;;;;;4115875;28;20030;-82
2022/08/20 00:16:19;;;;;;;11.88;6.50;;;17.10;70.80;;;;;;4128635;28;20388;-81
2022/08/20 00:18:21;;;;;;;13.15;6.32;;;17.10;70.80;;;;;;4132404;28;20026;-81
2022/08/20 00:20:28;;;;;;;9.45;6.03;;;17.10;70.90;;;;;;4127144;28;20030;-82
2022/08/20 00:22:28;;;;;;;10.13;5.88;;;17.00;70.80;;;;;;4137797;28;20042;-82
2022/08/20 00:24:29;;;;;;;9.35;6.20;;;17.10;70.90;;;;;;4110933;28;20489;-82
2022/08/20 00:26:30;;;;;;;9.57;6.00;;;17.10;71.00;;;;;;4138787;28;20480;-83
2022/08/20 00:28:31;;;;;;;11.35;5.80;;;17.10;71.00;;;;;;4117005;28;20034;-83
2022/08/20 00:30:32;;;;;;;6.20;4.00;;;17.00;71.00;;;;;;4101807;28;20030;-83
2022/08/20 00:32:43;;;;;;;4.57;3.30;;;17.10;71.00;;;;;;4093701;28;20110;-82
2022/08/20 00:34:44;;;;;;;4.30;2.90;;;17.10;71.70;;;;;;4127232;28;20166;-83
2022/08/20 00:36:45;;;;;;;10.35;3.38;;;17.10;70.60;;;;;;4129798;28;21039;-83
2022/08/20 00:38:46;;;;;;;5.32;3.05;;;17.00;70.30;;;;;;4130172;28;20080;-83
2022/08/20 00:40:56;;;;;;;5.88;3.42;;;17.00;70.30;;;;;;4109352;28;20145;-82
2022/08/20 00:42:59;;;;;;;6.28;3.53;;;17.00;70.50;;;;;;4137326;28;20026;-83
2022/08/20 00:45:00;;;;;;;5.88;3.28;;;17.00;70.50;;;;;;4111648;28;20762;-83
2022/08/20 00:47:01;;;;;;;4.57;3.30;;;16.90;70.40;;;;;;4127363;28;20056;-82
2022/08/20 00:49:07;;;;;;;8.38;4.03;;;17.00;70.70;;;;;;4110462;28;20034;-83
2022/08/20 00:51:20;;;;;;;10.32;4.38;;;16.90;70.90;;;;;;4133073;28;20033;-83
2022/08/20 00:53:23;;;;;;;8.82;4.53;;;16.90;71.20;;;;;;4132661;28;20026;-82
2022/08/20 00:55:25;;;;;;;7.88;4.40;;;16.80;71.30;;;;;;4134854;28;20461;-83
2022/08/20 00:57:36;;;;;;;9.50;5.20;;;16.90;71.50;;;;;;4132991;28;20438;-83
2022/08/20 00:59:40;;;;;;;7.60;4.45;;;16.80;71.80;;;;;;4136341;28;20113;-82
2022/08/20 01:01:43;;;;;;;9.73;4.75;;;16.90;71.90;;;;;;4132573;28;20043;-83
2022/08/20 01:03:43;;;;;;;8.47;5.03;;;16.90;72.20;;;;;;4133196;28;20038;-82
2022/08/20 01:05:48;;;;;;;7.82;5.57;;;16.80;72.30;;;;;;4135494;28;20281;-83
2022/08/20 01:07:52;;;;;;;9.60;5.93;;;16.90;72.60;;;;;;4141457;28;20484;-82
2022/08/20 01:09:53;;;;;;;11.20;6.20;;;16.90;72.80;;;;;;4132887;28;20031;-82
2022/08/20 01:11:57;;;;;;;14.70;8.45;;;16.90;72.90;;;;;;4132819;28;20413;-83
2022/08/20 01:13:58;;;;;;;16.55;9.73;;;17.00;73.20;;;;;;4135793;28;20108;-81
2022/08/20 01:16:02;;;;;;;16.10;9.95;;;17.00;73.40;;;;;;4120382;28;20554;-83
2022/08/20 01:18:04;;;;;;;17.60;9.98;;;16.90;73.60;;;;;;4136026;28;20117;-83
2022/08/20 01:20:16;;;;;;;18.73;10.70;;;17.00;73.80;;;;;;4136365;28;20634;-83
2022/08/20 01:24:49;;;;;;;19.95;9.43;;;17.00;74.30;;;;;;4093639;28;20488;-83
2022/08/20 01:26:50;;;;;;;20.33;10.80;;;17.00;74.10;;;;;;4132842;28;20847;-82
2022/08/20 01:28:59;;;;;;;18.45;10.35;;;17.10;74.30;;;;;;4114822;28;20027;-82
2022/08/20 01:30:59;;;;;;;17.80;9.88;;;17.10;74.50;;;;;;4129569;28;20027;-82
2022/08/20 01:33:01;;;;;;;24.27;10.77;;;17.10;74.40;;;;;;4116981;28;20019;-83
2022/08/20 01:35:03;;;;;;;19.27;11.23;;;17.10;74.40;;;;;;4115952;28;20027;-83
2022/08/20 01:37:04;;;;;;;21.45;10.18;;;17.10;74.50;;;;;;4117360;28;20026;-83
2022/08/20 01:39:08;;;;;;;18.27;10.00;;;17.20;74.60;;;;;;4132230;28;20270;-83
2022/08/20 01:41:20;;;;;;;17.27;9.73;;;17.20;74.60;;;;;;4132940;28;20389;-83
2022/08/20 01:43:22;;;;;;;16.17;9.32;;;17.20;74.80;;;;;;4116934;28;20069;-83
2022/08/20 01:45:26;;;;;;;16.40;8.90;;;17.20;74.60;;;;;;4127407;28;20132;-81
2022/08/20 01:47:30;;;;;;;18.25;9.52;;;17.20;74.50;;;;;;4134136;28;20054;-81
2022/08/20 01:49:33;;;;;;;24.23;11.05;;;17.20;74.50;;;;;;4127902;28;20026;-82
2022/08/20 01:51:34;;;;;;;18.40;11.38;;;17.20;74.50;;;;;;4128850;28;20030;-81
2022/08/20 01:53:41;;;;;;;17.42;10.85;;;17.20;74.60;;;;;;4112429;28;20582;-82
2022/08/20 01:55:42;;;;;;;15.90;9.75;;;17.20;74.90;;;;;;4130726;28;20053;-82
2022/08/20 01:57:43;;;;;;;16.55;9.20;;;17.20;74.90;;;;;;4095134;28;21567;-81
2022/08/20 01:59:44;;;;;;;20.30;9.63;;;17.20;75.00;;;;;;4133057;28;20533;-81
2022/08/20 02:01:45;;;;;;;16.35;10.10;;;17.30;75.80;;;;;;4126210;28;20352;-81
2022/08/20 02:03:46;;;;;;;18.13;9.95;;;17.30;75.10;;;;;;4111244;28;20039;-81
2022/08/20 02:05:46;;;;;;;15.82;9.88;;;17.30;75.00;;;;;;4109391;28;20084;-81
2022/08/20 02:07:47;;;;;;;15.00;9.43;;;17.30;75.00;;;;;;4111365;28;20039;-81
2022/08/20 02:09:49;;;;;;;17.55;9.98;;;17.30;75.00;;;;;;4123727;28;20069;-81
2022/08/20 02:11:52;;;;;;;19.23;10.48;;;17.40;75.00;;;;;;4113143;28;20110;-82
2022/08/20 02:13:53;;;;;;;23.35;12.23;;;17.30;74.90;;;;;;4108145;28;20062;-82
2022/08/20 02:15:54;;;;;;;25.45;12.63;;;17.40;75.00;;;;;;4124336;28;20939;-81
2022/08/20 02:17:56;;;;;;;23.90;12.23;;;17.40;75.10;;;;;;4124751;28;20089;-82
2022/08/20 02:20:03;;;;;;;22.80;13.95;;;17.40;75.10;;;;;;4112662;28;20471;-82
2022/08/20 02:22:13;;;;;;;21.85;12.02;;;17.40;75.20;;;;;;4111851;28;20497;-82
2022/08/20 02:24:13;;;;;;;21.92;12.02;;;17.40;75.40;;;;;;4128107;28;20553;-82
2022/08/20 02:26:17;;;;;;;18.15;11.57;;;17.40;75.30;;;;;;4114945;28;20027;-82
2022/08/20 02:28:19;;;;;;;26.48;12.50;;;17.40;75.40;;;;;;4126249;28;20045;-82
2022/08/20 02:30:28;;;;;;;24.20;12.88;;;17.40;75.50;;;;;;4125947;28;20046;-82
2022/08/20 02:32:28;;;;;;;19.65;12.70;;;17.40;75.70;;;;;;4128167;28;20034;-83
2022/08/20 02:34:33;;;;;;;24.00;13.48;;;17.40;75.60;;;;;;4131193;28;20077;-83
2022/08/20 02:36:36;;;;;;;17.13;10.43;;;17.40;75.70;;;;;;4139700;28;20072;-83
2022/08/20 02:38:38;;;;;;;24.17;11.35;;;17.40;75.70;;;;;;4132917;28;20027;-83
2022/08/20 02:40:39;;;;;;;20.05;12.10;;;17.40;75.70;;;;;;4115593;28;20019;-83
2022/08/20 02:42:42;;;;;;;23.90;13.13;;;17.40;75.60;;;;;;4127891;28;20097;-83
2022/08/20 02:44:42;;;;;;;21.20;11.73;;;17.40;75.60;;;;;;4111491;28;20031;-83
2022/08/20 02:46:48;;;;;;;27.83;11.60;;;17.40;75.30;;;;;;4119956;28;20559;-83
2022/08/20 02:48:49;;;;;;;24.67;11.60;;;17.40;75.20;;;;;;4116448;28;20456;-83
2022/08/20 02:50:56;;;;;;;20.42;11.15;;;17.40;75.10;;;;;;4128251;28;20031;-82
2022/08/20 02:52:57;;;;;;;21.15;11.25;;;17.40;75.00;;;;;;4121940;28;20055;-83
2022/08/20 02:54:58;;;;;;;17.73;10.27;;;17.40;75.10;;;;;;4117595;28;20049;-83
2022/08/20 02:56:58;;;;;;;21.48;11.13;;;17.40;75.20;;;;;;4138528;28;20105;-83
2022/08/20 02:59:02;;;;;;;21.00;11.93;;;17.40;75.30;;;;;;4135910;28;20034;-83
2022/08/20 03:01:06;;;;;;;20.83;10.82;;;17.30;75.30;;;;;;4120615;28;20042;-83
2022/08/20 03:03:08;;;;;;;16.80;9.65;;;17.30;75.30;;;;;;4120507;28;20029;-83
2022/08/20 03:05:09;;;;;;;18.02;10.63;;;17.30;75.30;;;;;;4119825;28;20022;-82
2022/08/20 03:07:11;;;;;;;19.00;11.73;;;17.30;75.40;;;;;;4118853;28;20420;-83
2022/08/20 03:09:11;;;;;;;26.38;13.05;;;17.30;75.30;;;;;;4131607;28;20180;-83
2022/08/20 03:11:12;;;;;;;26.25;13.85;;;17.30;75.40;;;;;;4131437;28;20027;-83
2022/08/20 03:13:14;;;;;;;22.73;13.05;;;17.30;75.50;;;;;;4116585;28;20034;-82
2022/08/20 03:15:15;;;;;;;19.73;11.02;;;17.30;75.40;;;;;;4132045;28;20053;-82
2022/08/20 03:17:16;;;;;;;25.33;13.30;;;17.30;75.50;;;;;;4132070;28;20411;-82
2022/08/20 03:19:16;;;;;;;21.77;12.70;;;17.30;75.50;;;;;;4112396;28;20030;-82
2022/08/20 03:21:17;;;;;;;26.60;14.20;;;17.30;75.70;;;;;;4114701;28;20031;-82
2022/08/20 03:23:20;;;;;;;28.02;14.75;;;17.20;75.80;;;;;;4131678;28;20110;-82
2022/08/20 03:25:20;;;;;;;29.98;15.73;;;17.30;76.00;;;;;;4130910;28;20127;-82
2022/08/20 03:27:21;;;;;;;26.95;13.38;;;17.30;76.30;;;;;;4130273;28;20057;-83
2022/08/20 03:29:22;;;;;;;31.75;16.63;;;17.30;76.40;;;;;;4109360;28;20037;-82
2022/08/20 03:31:23;;;;;;;31.13;16.38;;;17.30;76.50;;;;;;4132505;28;20026;-82
2022/08/20 03:33:25;;;;;;;28.73;16.10;;;17.30;76.70;;;;;;4112624;28;20054;-83
2022/08/20 03:35:27;;;;;;;27.35;14.80;;;17.30;76.80;;;;;;4125849;28;20033;-82
2022/08/20 03:37:31;;;;;;;25.15;14.95;;;17.30;76.90;;;;;;4129451;28;20030;-81
2022/08/20 03:39:31;;;;;;;27.77;15.38;;;17.40;77.10;;;;;;4130350;28;20491;-83
2022/08/20 03:41:32;;;;;;;28.73;16.35;;;17.40;77.20;;;;;;4129332;28;20033;-81
2022/08/20 03:43:34;;;;;;;27.48;15.85;;;17.40;77.30;;;;;;4127701;28;20038;-81
2022/08/20 03:45:38;;;;;;;30.77;16.10;;;17.40;77.30;;;;;;4112166;28;20026;-82
2022/08/20 03:47:39;;;;;;;28.35;15.93;;;17.40;77.40;;;;;;4116996;28;20467;-82
2022/08/20 03:49:40;;;;;;;32.03;16.25;;;17.40;77.40;;;;;;4136375;28;20030;-83
2022/08/20 03:51:41;;;;;;;30.63;16.70;;;17.40;77.40;;;;;;4128798;28;20041;-82
2022/08/20 03:53:42;;;;;;;33.10;15.90;;;17.40;77.50;;;;;;4123681;28;20030;-82
2022/08/20 03:55:45;;;;;;;36.45;17.25;;;17.40;77.50;;;;;;4120829;28;20040;-82
2022/08/20 03:57:53;;;;;;;;;;;17.50;77.80;;;;;;4128667;28;20038;-83
2022/08/20 03:59:54;;;;;;;28.58;14.52;;;17.50;78.50;;;;;;4106104;28;19953;-81
2022/08/20 04:02:10;;;;;;;34.28;15.98;;;17.50;77.40;;;;;;4131406;28;20099;-82
2022/08/20 04:04:26;;;;;;;25.55;15.20;;;17.50;77.60;;;;;;4133429;28;20084;-83
2022/08/20 04:09:23;;;;;;;28.40;15.25;;;17.50;77.60;;;;;;4090322;28;20126;-81
2022/08/20 04:11:33;;;;;;;28.70;15.13;;;17.50;77.50;;;;;;4080970;29;20031;-83
2022/08/20 04:13:39;;;;;;;36.10;15.52;;;17.50;77.70;;;;;;4079244;29;20027;-83
2022/08/20 04:15:40;;;;;;;33.42;16.70;;;17.50;77.70;;;;;;4063851;29;20066;-83
2022/08/20 04:17:44;;;;;;;29.92;15.90;;;17.50;77.90;;;;;;4077373;29;20028;-82
2022/08/20 04:19:45;;;;;;;30.83;16.42;;;17.50;78.00;;;;;;4074160;29;20094;-82
2022/08/20 04:21:47;;;;;;;27.42;14.98;;;17.60;78.10;;;;;;4080225;29;20115;-82
2022/08/20 04:23:48;;;;;;;27.77;15.80;;;17.60;78.20;;;;;;4066853;29;20040;-82
2022/08/20 04:25:49;;;;;;;34.50;16.52;;;17.60;78.30;;;;;;4078646;29;20049;-82
2022/08/20 04:27:50;;;;;;;31.63;16.65;;;17.60;78.30;;;;;;4062636;29;20160;-82
2022/08/20 04:29:50;;;;;;;26.20;14.38;;;17.60;78.30;;;;;;4076132;29;20040;-82
2022/08/20 04:31:52;;;;;;;27.70;15.85;;;17.60;78.40;;;;;;4088634;29;20032;-82
2022/08/20 04:33:52;;;;;;;28.88;16.23;;;17.60;78.50;;;;;;4069465;29;20028;-83
2022/08/20 04:35:58;;;;;;;27.80;16.00;;;17.70;78.60;;;;;;4086245;29;20070;-83
2022/08/20 04:38:01;;;;;;;31.55;16.48;;;17.60;78.70;;;;;;4080768;29;20031;-81
2022/08/20 04:42:25;;;;;;;34.90;16.65;;;17.70;79.10;;;;;;4132373;28;20022;-83
2022/08/20 04:44:26;;;;;;;31.55;16.58;;;17.70;79.10;;;;;;4132883;28;20036;-83
2022/08/20 04:46:27;;;;;;;29.85;16.92;;;17.70;79.20;;;;;;4115534;28;20160;-82
2022/08/20 04:48:32;;;;;;;29.80;15.65;;;17.70;79.20;;;;;;4135147;28;20030;-83
2022/08/20 04:50:34;;;;;;;31.25;17.20;;;17.70;79.30;;;;;;4110108;28;20031;-83
2022/08/20 04:52:36;;;;;;;33.20;15.13;;;17.80;79.40;;;;;;4129908;28;20046;-83
2022/08/20 04:54:37;;;;;;;26.58;15.40;;;17.80;80.20;;;;;;4125652;28;20026;-82
2022/08/20 04:56:38;;;;;;;26.17;14.98;;;17.80;79.50;;;;;;4109745;28;20043;-83
2022/08/20 04:58:39;;;;;;;33.47;16.00;;;17.80;79.60;;;;;;4130532;28;20395;-82
2022/08/20 05:00:43;;;;;;;28.05;15.25;;;17.80;79.60;;;;;;4126871;28;20141;-82
2022/08/20 05:02:44;;;;;;;26.92;14.30;;;17.80;79.70;;;;;;4111771;28;20030;-81
2022/08/20 05:04:46;;;;;;;27.67;16.00;;;17.80;79.70;;;;;;4126677;28;20355;-82
2022/08/20 05:06:48;;;;;;;26.13;14.77;;;17.80;79.70;;;;;;4124249;28;20029;-81
2022/08/20 05:08:49;;;;;;;27.63;15.45;;;17.80;79.70;;;;;;4122107;28;20031;-82
2022/08/20 05:10:52;;;;;;;28.65;16.08;;;17.80;79.70;;;;;;4093109;28;20094;-81
2022/08/20 05:12:53;;;;;;;26.42;15.27;;;17.80;79.70;;;;;;4094516;28;20059;-82
2022/08/20 05:14:56;;;;;;;23.05;14.45;;;17.90;79.70;;;;;;4108883;28;20035;-82
2022/08/20 05:16:56;;;;;;;25.67;15.30;;;17.90;79.70;;;;;;4127884;28;20027;-81
2022/08/20 05:18:57;;;;;;;24.65;13.90;;;17.90;79.60;;;;;;4124726;28;21483;-80
2022/08/20 05:21:04;;;;;;;23.75;14.20;;;17.90;79.60;;;;;;4124552;28;20139;-81
2022/08/20 05:23:08;;;;;;;24.75;13.65;;;17.90;79.70;;;;;;4129943;28;22078;-82
2022/08/20 05:25:09;;;;;;;23.55;13.38;;;17.90;79.50;;;;;;4126491;28;20030;-81
2022/08/20 05:27:10;;;;;;;25.52;13.13;;;17.90;79.40;;;;;;4127435;28;20049;-83
2022/08/20 05:29:11;;;;;;;25.73;13.85;;;17.90;79.30;;;;;;4105076;28;20165;-83
2022/08/20 05:31:11;;;;;;;21.08;13.10;;;17.90;79.30;;;;;;4104718;28;20030;-82
2022/08/20 05:33:15;;;;;;;23.67;12.48;;;17.90;79.30;;;;;;4128326;28;20259;-83
2022/08/20 05:35:16;;;;;;;19.50;11.50;;;17.90;79.20;;;;;;4128233;28;20109;-83
2022/08/20 05:37:17;;;;;;;19.15;12.18;;;17.90;79.30;;;;;;4109047;28;20030;-84
2022/08/20 05:39:20;;;;;;;19.30;11.77;;;17.90;79.30;;;;;;4107847;28;20031;-83
2022/08/20 05:41:20;;;;;;;;;;;17.90;79.30;;;;;;4133894;28;20049;-81
2022/08/20 05:43:21;;;;;;;19.98;11.02;;;17.90;79.60;;;;;;4126086;28;20167;-81
2022/08/20 05:45:23;;;;;;;18.38;11.38;;;17.90;78.90;;;;;;4130390;28;20042;-82
2022/08/20 05:47:27;;;;;;;21.25;11.95;;;17.90;79.00;;;;;;4124151;28;20041;-82
2022/08/20 05:49:29;;;;;;;24.60;12.18;;;17.90;79.00;;;;;;4128736;28;20026;-82
2022/08/20 05:51:29;;;;;;;16.38;10.93;;;17.90;79.10;;;;;;4125332;28;20057;-82
2022/08/20 05:53:30;;;;;;;18.25;10.38;;;17.90;79.00;;;;;;4135563;28;20026;-80
2022/08/20 05:55:31;;;;;;;18.10;10.45;;;17.90;79.10;;;;;;4128047;28;20484;-81
2022/08/20 05:57:33;;;;;;;17.63;9.55;;;17.90;79.00;;;;;;4129694;28;20038;-81
2022/08/20 05:59:35;;;;;;;17.42;9.65;;;17.90;79.00;;;;;;4122874;28;20037;-82
2022/08/20 06:01:38;;;;;;;15.63;8.75;;;18.00;79.10;;;;;;4111749;28;20066;-81
2022/08/20 06:05:58;;;;;;;18.67;9.07;;;18.00;79.50;;;;;;4129042;28;19913;-81
2022/08/20 06:07:59;;;;;;;13.25;9.25;;;18.00;78.90;;;;;;4127767;28;20035;-81
2022/08/20 06:10:00;;;;;;;14.90;9.27;;;18.00;79.00;;;;;;4110218;28;20092;-80
2022/08/20 06:12:04;;;;;;;15.25;8.48;;;18.00;79.20;;;;;;4130916;28;20037;-81
2022/08/20 06:14:05;;;;;;;14.80;8.38;;;18.10;79.30;;;;;;4137634;28;20019;-82
2022/08/20 06:16:06;;;;;;;11.35;7.70;;;18.10;79.20;;;;;;4120051;28;20090;-81
2022/08/20 06:18:08;;;;;;;14.10;8.27;;;18.10;79.20;;;;;;4133959;28;20400;-82
2022/08/20 06:20:10;;;;;;;12.70;7.40;;;18.10;79.20;;;;;;4111770;28;20049;-81
2022/08/20 06:22:12;;;;;;;9.43;6.78;;;18.10;79.50;;;;;;4120875;28;20037;-82
2022/08/20 06:24:12;;;;;;;11.70;6.75;;;18.10;79.50;;;;;;4112044;28;20086;-83
2022/08/20 06:26:13;;;;;;;12.35;6.50;;;18.20;79.70;;;;;;4094802;28;20089;-82
2022/08/20 06:28:14;;;;;;;12.55;7.60;;;18.20;79.60;;;;;;4128383;28;20346;-80
2022/08/20 06:30:16;;;;;;;13.07;6.85;;;18.30;79.60;;;;;;4122199;28;21285;-80
2022/08/20 06:32:18;;;;;;;12.88;6.43;;;18.30;79.50;;;;;;4119341;28;20034;-81
2022/08/20 06:34:19;;;;;;;10.63;6.77;;;18.30;79.60;;;;;;4122863;28;20033;-81
2022/08/20 06:36:20;;;;;;;9.23;6.40;;;18.40;79.90;;;;;;4126180;28;21674;-82
2022/08/20 06:38:21;;;;;;;8.20;5.80;;;18.40;79.80;;;;;;4127716;28;20113;-81
2022/08/20 06:40:27;;;;;;;11.05;6.72;;;18.50;79.80;;;;;;4135153;28;20053;-82
2022/08/20 06:42:28;;;;;;;9.38;6.00;;;18.60;79.70;;;;;;4106567;28;20489;-81
2022/08/20 06:44:29;;;;;;;8.40;5.25;;;18.60;79.50;;;;;;4108069;28;20080;-81
2022/08/20 06:46:31;;;;;;;9.20;5.38;;;18.60;79.40;;;;;;4120424;28;20101;-80
2022/08/20 06:48:31;;;;;;;12.98;6.25;;;18.70;79.30;;;;;;4121792;28;20117;-80
2022/08/20 06:50:40;;;;;;;9.00;5.18;;;18.80;79.10;;;;;;4125020;28;20507;-81
2022/08/20 06:52:41;;;;;;;8.45;5.13;;;18.80;78.80;;;;;;4126563;28;20045;-81
2022/08/20 06:54:43;;;;;;;12.32;5.10;;;18.90;78.70;;;;;;4125321;28;20956;-81
2022/08/20 06:56:43;;;;;;;6.03;3.80;;;19.00;78.40;;;;;;4119655;28;20070;-81
2022/08/20 06:58:48;;;;;;;8.88;4.88;;;19.00;78.10;;;;;;4118720;28;20057;-81
2022/08/20 07:00:52;;;;;;;7.90;3.63;;;19.10;78.00;;;;;;4093307;28;20043;-81
2022/08/20 07:02:52;;;;;;;7.40;3.55;;;19.20;77.90;;;;;;4120455;28;20034;-81
2022/08/20 07:04:54;;;;;;;6.15;3.78;;;19.20;78.20;;;;;;4122301;28;20547;-81
2022/08/20 07:06:56;;;;;;;7.80;3.95;;;19.30;77.20;;;;;;4105787;28;20118;-82
2022/08/20 07:08:57;;;;;;;7.75;3.80;;;19.40;76.80;;;;;;4123253;28;20093;-81
2022/08/20 07:10:59;;;;;;;7.32;3.30;;;19.40;76.50;;;;;;4101183;28;20066;-82
2022/08/20 07:13:03;;;;;;;6.25;3.05;;;19.50;76.00;;;;;;4122565;28;20033;-81
2022/08/20 07:15:06;;;;;;;5.70;3.10;;;19.50;75.30;;;;;;4103086;28;20035;-82
2022/08/20 07:17:06;;;;;;;5.80;2.95;;;19.60;74.90;;;;;;4124744;28;20037;-81
2022/08/20 07:19:08;;;;;;;3.97;2.85;;;19.60;74.50;;;;;;4108641;28;20496;-80
2022/08/20 07:21:10;;;;;;;6.43;2.58;;;19.70;74.30;;;;;;4109378;28;20045;-82
2022/08/20 07:23:11;;;;;;;8.70;2.80;;;19.80;73.80;;;;;;4120248;28;20034;-81
2022/08/20 07:25:15;;;;;;;7.55;3.10;;;19.80;73.40;;;;;;4115412;28;20361;-81
2022/08/20 07:27:21;;;;;;;6.85;2.50;;;19.90;72.80;;;;;;4114545;28;20057;-81
2022/08/20 07:32:32;;;;;;;6.22;2.90;;;20.00;72.30;;;;;;4115610;28;20053;-81
2022/08/20 07:34:02;;;;;;;6.10;2.47;;;20.10;71.50;;;;;;4126225;28;20026;-81
2022/08/20 07:36:03;;;;;;;5.25;2.13;;;20.10;71.10;;;;;;4105148;28;20144;-82
2022/08/20 07:38:04;;;;;;;4.45;2.28;;;20.20;70.70;;;;;;4119772;28;20313;-81
2022/08/20 07:40:05;;;;;;;7.47;2.65;;;20.20;70.50;;;;;;4102276;28;20046;-80
2022/08/20 07:42:06;;;;;;;4.78;2.28;;;20.20;69.80;;;;;;4114614;28;20045;-81
2022/08/20 07:44:07;;;;;;;2.92;1.65;;;20.30;69.80;;;;;;4107653;28;20583;-82
2022/08/20 07:46:09;;;;;;;2.80;1.60;;;20.30;69.20;;;;;;4117612;28;20330;-81
2022/08/20 07:48:13;;;;;;;5.47;1.67;;;20.30;68.30;;;;;;4109327;28;20134;-81
2022/08/20 07:50:18;;;;;;;7.43;1.50;;;20.40;68.20;;;;;;4118580;28;20049;-82
2022/08/20 07:52:20;;;;;;;4.95;1.90;;;20.40;68.10;;;;;;4120261;28;20027;-80
2022/08/20 07:54:23;;;;;;;4.00;1.80;;;20.50;68.10;;;;;;4108383;28;20101;-80
2022/08/20 07:56:25;;;;;;;3.72;1.92;;;20.50;67.90;;;;;;4127780;28;20298;-80
2022/08/20 07:58:29;;;;;;;;;;;20.60;67.60;;;;;;4125746;28;20030;-81
2022/08/20 08:00:34;;;;;;;3.05;1.55;;;20.60;67.30;;;;;;4125556;28;19929;-81
2022/08/20 08:02:39;;;;;;;6.93;1.70;;;20.70;67.90;;;;;;4127183;28;20041;-80
2022/08/20 08:04:42;;;;;;;4.00;1.50;;;20.80;67.50;;;;;;4107830;28;20034;-81
2022/08/20 08:06:44;;;;;;;2.30;1.58;;;20.80;66.00;;;;;;4120349;28;20053;-81
2022/08/20 08:08:45;;;;;;;3.08;1.70;;;20.90;65.70;;;;;;4115566;28;20035;-82
2022/08/20 08:10:50;;;;;;;5.38;2.22;;;20.90;65.60;;;;;;4101682;28;20168;-79
2022/08/20 08:12:56;;;;;;;4.93;2.20;;;20.90;65.70;;;;;;4108824;28;20111;-82
2022/08/20 08:14:57;;;;;;;3.00;1.88;;;21.00;65.50;;;;;;4111222;28;20034;-81
2022/08/20 08:17:05;;;;;;;7.03;1.98;;;21.10;65.60;;;;;;4082783;28;20265;-81
2022/08/20 08:19:16;;;;;;;5.78;2.25;;;21.20;65.20;;;;;;4103560;28;20082;-82
2022/08/20 08:21:22;;;;;;;5.20;1.92;;;21.20;64.80;;;;;;4111257;28;20061;-81
2022/08/20 08:23:26;;;;;;;;;;;21.30;64.80;;;;;;4090642;28;20030;-81
2022/08/20 08:25:32;;;;;;;5.85;2.20;;;21.40;64.60;;;;;;4112709;28;19921;-81
2022/08/20 08:27:36;;;;;;;4.13;1.90;;;21.50;65.00;;;;;;4122626;28;20617;-81
2022/08/20 08:29:42;;;;;;;5.20;1.90;;;21.50;64.50;;;;;;4121379;28;20030;-81
2022/08/20 08:31:48;;;;;;;4.95;1.88;;;21.60;64.60;;;;;;4100557;28;20027;-81
2022/08/20 08:33:52;;;;;;;4.45;2.03;;;21.70;64.30;;;;;;4125015;28;20026;-81
2022/08/20 08:36:03;;;;;;;3.50;2.10;;;21.80;63.70;;;;;;4097312;28;20153;-81
2022/08/20 08:38:08;;;;;;;;;;;21.80;63.20;;;;;;4109642;28;20038;-81
2022/08/20 08:40:13;;;;;;;4.72;1.80;;;21.90;63.70;;;;;;4121302;28;19917;-81
2022/08/20 08:42:45;;;;;;;5.07;1.75;;;22.00;63.50;;;;;;4124526;28;20085;-81
2022/08/20 08:44:49;;;;;;;4.18;1.58;;;22.10;62.70;;;;;;4133392;28;20041;-82
2022/08/20 08:47:12;;;;;;;4.80;2.00;;;22.20;62.50;;;;;;4131293;28;20037;-82
2022/08/20 08:49:21;;;;;;;4.63;2.25;;;22.20;60.80;;;;;;4112393;28;20034;-82
2022/08/20 08:51:36;;;;;;;5.15;1.90;;;22.30;60.50;;;;;;4109174;28;20133;-81
2022/08/20 08:53:46;;;;;;;4.00;1.70;;;22.30;59.90;;;;;;4100246;28;20103;-81
2022/08/20 08:55:47;;;;;;;4.03;1.50;;;22.30;59.90;;;;;;4124906;28;20077;-81
2022/08/20 08:57:48;;;;;;;6.75;2.05;;;22.30;59.80;;;;;;4116336;28;20023;-81
2022/08/20 08:59:57;;;;;;;5.43;1.70;;;22.30;59.60;;;;;;4121200;28;20077;-82
2022/08/20 09:02:01;;;;;;;4.90;1.63;;;22.30;59.20;;;;;;4118957;28;20077;-81
2022/08/20 09:04:04;;;;;;;;;;;22.30;59.10;;;;;;4113769;28;20041;-82
2022/08/20 09:06:06;;;;;;;4.28;1.80;;;22.30;59.30;;;;;;4119299;28;19916;-81
2022/08/20 09:08:11;;;;;;;5.53;2.25;;;22.30;58.90;;;;;;4120201;28;20034;-81
2022/08/20 09:10:12;;;;;;;4.65;1.48;;;22.30;58.80;;;;;;4100553;28;20689;-81
2022/08/20 09:12:17;;;;;;;3.72;1.75;;;22.30;58.80;;;;;;4114004;28;20031;-80
2022/08/20 09:14:19;;;;;;;4.43;1.65;;;22.30;58.80;;;;;;4111804;28;20519;-82
2022/08/20 09:16:26;;;;;;;5.05;1.40;;;22.20;58.80;;;;;;4103760;28;20605;-81
2022/08/20 09:18:27;;;;;;;5.53;2.00;;;22.20;59.00;;;;;;4102894;28;20057;-81
2022/08/20 09:20:28;;;;;;;2.97;1.52;;;22.20;59.20;;;;;;4120433;28;20878;-80
2022/08/20 09:22:32;;;;;;;2.78;1.50;;;22.20;59.20;;;;;;4120425;28;20030;-81
2022/08/20 09:24:33;;;;;;;3.15;1.40;;;22.30;59.10;;;;;;4106261;28;20034;-81
2022/08/20 09:26:34;;;;;;;2.88;1.20;;;22.30;59.20;;;;;;4120353;28;20061;-81
2022/08/20 09:28:35;;;;;;;4.85;1.27;;;22.30;59.10;;;;;;4107604;28;20031;-81
2022/08/20 09:30:36;;;;;;;2.80;1.45;;;22.40;58.80;;;;;;4126486;28;20882;-81
2022/08/20 09:32:37;;;;;;;5.32;1.38;;;22.40;58.50;;;;;;4106621;28;20030;-80
2022/08/20 09:34:39;;;;;;;6.45;1.15;;;22.50;58.20;;;;;;4108039;28;20037;-81
2022/08/20 09:36:40;;;;;;;2.40;1.17;;;22.50;58.10;;;;;;4126615;28;20027;-80
2022/08/20 09:38:41;;;;;;;2.28;1.15;;;22.50;57.90;;;;;;4127433;28;20946;-81
2022/08/20 09:40:42;;;;;;;5.72;1.50;;;22.50;57.30;;;;;;4123135;28;20222;-81
2022/08/20 09:42:42;;;;;;;4.57;1.20;;;22.50;57.10;;;;;;4106646;28;20084;-80
2022/08/20 09:44:44;;;;;;;3.50;1.13;;;22.50;57.10;;;;;;4109436;28;20035;-81
2022/08/20 09:46:45;;;;;;;3.65;1.20;;;22.50;56.50;;;;;;4123562;28;20034;-87
2022/08/20 09:48:45;;;;;;;4.63;1.42;;;22.50;56.50;;;;;;4110364;28;20913;-81
2022/08/20 09:50:48;;;;;;;2.88;1.20;;;22.50;55.90;;;;;;4122606;28;20046;-81
2022/08/20 09:52:51;;;;;;;4.68;1.45;;;22.50;55.50;;;;;;4129170;28;20030;-81
2022/08/20 09:54:56;;;;;;;3.25;0.88;;;22.50;55.00;;;;;;4119280;28;20505;-81
2022/08/20 09:56:59;;;;;;;4.13;1.27;;;22.60;54.70;;;;;;4130373;28;20596;-80
2022/08/20 09:59:00;;;;;;;4.47;1.20;;;22.60;54.30;;;;;;4115445;28;20431;-81
2022/08/20 10:01:06;;;;;;;4.53;1.40;;;22.60;54.00;;;;;;4128592;28;20098;-81
2022/08/20 10:03:07;;;;;;;7.43;1.60;;;22.70;54.00;;;;;;4130393;28;20910;-82
2022/08/20 10:05:09;;;;;;;5.68;1.27;;;22.70;54.10;;;;;;4132578;28;20022;-81
2022/08/20 10:07:09;;;;;;;4.65;1.15;;;22.70;53.50;;;;;;4113471;28;20031;-82
2022/08/20 10:09:10;;;;;;;5.75;1.33;;;22.70;52.80;;;;;;4112142;28;20541;-82
2022/08/20 10:11:11;;;;;;;8.40;1.50;;;22.80;52.70;;;;;;4132927;28;20034;-82
2022/08/20 10:13:12;;;;;;;10.15;1.60;;;22.80;51.70;;;;;;4133614;28;20041;-79
2022/08/20 10:15:13;;;;;;;8.68;3.72;;;22.80;50.40;;;;;;4134289;28;20447;-81
2022/08/20 10:17:14;;;;;;;17.55;8.05;;;22.90;50.50;;;;;;4129679;28;20046;-83
2022/08/20 10:19:15;;;;;;;11.13;4.55;;;22.90;50.10;;;;;;4135369;28;20089;-81
2022/08/20 10:21:16;;;;;;;6.75;2.30;;;23.00;50.50;;;;;;4132168;28;20038;-80
2022/08/20 10:23:17;;;;;;;15.48;7.10;;;23.00;50.20;;;;;;4124835;28;20530;-81
2022/08/20 10:25:18;;;;;;;8.13;2.35;;;23.10;50.30;;;;;;4124466;28;20129;-81
2022/08/20 10:27:18;;;;;;;6.40;2.05;;;23.20;50.30;;;;;;4129617;28;20709;-80
2022/08/20 10:29:19;;;;;;;6.97;1.52;;;23.30;50.40;;;;;;4129076;28;20440;-80
2022/08/20 10:31:20;;;;;;;7.85;2.30;;;23.40;49.50;;;;;;4127122;28;20035;-81
2022/08/20 10:33:20;;;;;;;2.97;1.05;;;23.50;49.80;;;;;;4132836;28;20022;-82
2022/08/20 10:35:22;;;;;;;7.05;1.38;;;23.50;49.40;;;;;;4115825;28;20049;-81
2022/08/20 10:37:24;;;;;;;7.95;1.50;;;23.60;48.60;;;;;;4123673;28;20026;-81
2022/08/20 10:39:25;;;;;;;;;;;23.70;47.90;;;;;;4125466;28;20391;-81
2022/08/20 10:41:27;;;;;;;5.00;1.67;;;23.80;47.90;;;;;;4108569;28;19957;-81
2022/08/20 10:43:29;;;;;;;10.68;3.45;;;23.90;49.20;;;;;;4117419;28;20099;-80
2022/08/20 10:45:37;;;;;;;7.38;1.90;;;24.00;47.20;;;;;;4098339;28;20042;-80
2022/08/20 10:47:43;;;;;;;6.13;1.50;;;24.10;46.00;;;;;;4111213;28;20047;-82